Sukran S — TCKB — position and weather

sailwx.info

Track history (hours):
 
Tides and Currents Weather Stations Pressure Air Temp Water Temp Dewpoint Dewpoint Depression Visibility Wind Speed Wind Dir Waves Ship Positions

Sukran S

Last reported at 2017-Apr-23 14:35 UTC. Time now 2017-Apr-24 05:25 UTC.
Position N 46°16' E 030°54'.

Length 108 m; draft 7.1 m.

Type: Cargo ship. MMSI: 271000056.

Date/timePositionNaut miles runAvg speedWind from/ knotsBaromVisibWave heightAir tempDewpointWater temp
2017-Apr-23 14:35N 46°16' E 030°54'6 9.5
2017-Apr-23 13:56N 46°22' E 030°55'4 9.7
2017-Apr-23 13:30N 46°27' E 030°55'5 9.5
2017-Apr-23 13:00N 46°31' E 030°56'23 8.6
2017-Apr-23 10:18N 46°36' E 031°29'3 8.8
2017-Apr-23 10:00N 46°34' E 031°32'5 9.7
2017-Apr-23 09:30N 46°36' E 031°39'510.2
2017-Apr-23 09:00N 46°36' E 031°47'5 9.8
2017-Apr-23 08:30N 46°37' E 031°53'5 9.2
2017-Apr-23 08:00N 46°42' E 031°56'4 8.6
2017-Apr-23 07:30N 46°46' E 031°54'4 8.6
2017-Apr-23 07:00N 46°50' E 031°55'1 1.4
2017-Apr-23 06:29N 46°50' E 031°56'0 0.0
2017-Apr-23 05:59N 46°50' E 031°56'0 0.0
2017-Apr-23 05:29N 46°50' E 031°56'0 0.0
2017-Apr-23 05:00N 46°50' E 031°56'0 0.0
2017-Apr-23 04:27N 46°50' E 031°56'0 0.1
2017-Apr-23 03:59N 46°50' E 031°56'1 1.6
2017-Apr-23 03:30N 46°50' E 031°57'0 0.1
2017-Apr-23 02:59N 46°50' E 031°57'0 0.0
2017-Apr-23 02:29N 46°50' E 031°57'0 0.0
2017-Apr-23 01:59N 46°50' E 031°57'0 0.0
2017-Apr-23 01:27N 46°50' E 031°57'0 0.0
2017-Apr-23 01:00N 46°50' E 031°57'0 0.0
2017-Apr-23 00:30N 46°50' E 031°57'0 0.0
2017-Apr-22 23:58N 46°50' E 031°57'0 0.0
2017-Apr-22 23:28N 46°50' E 031°57'0 0.0
2017-Apr-22 22:58N 46°50' E 031°57'0 0.0
2017-Apr-22 22:29N 46°50' E 031°57'0 0.0
2017-Apr-22 22:00N 46°50' E 031°57'0 0.0
2017-Apr-22 21:26N 46°50' E 031°57'0 0.0
2017-Apr-22 20:59N 46°50' E 031°57'0 0.0
2017-Apr-22 20:28N 46°50' E 031°57'0 0.0
2017-Apr-22 19:59N 46°50' E 031°57'0 0.0
2017-Apr-22 19:29N 46°50' E 031°57'0 0.0
2017-Apr-22 19:00N 46°50' E 031°57'0 0.0
2017-Apr-22 18:28N 46°50' E 031°57'0 0.0
2017-Apr-22 17:57N 46°50' E 031°57'0 0.0
2017-Apr-22 17:30N 46°50' E 031°57'0 0.0
2017-Apr-22 17:00N 46°50' E 031°57'0 0.0
2017-Apr-22 16:30N 46°50' E 031°57'0 0.0
2017-Apr-22 16:00N 46°50' E 031°57'0 0.0
2017-Apr-22 15:29N 46°50' E 031°57'0 0.0
2017-Apr-22 15:00N 46°50' E 031°57'0 0.0
2017-Apr-22 14:28N 46°50' E 031°57'0 0.0
2017-Apr-22 13:30N 46°50' E 031°57'0 0.0
2017-Apr-22 13:00N 46°50' E 031°57'0 0.0
2017-Apr-22 12:28N 46°50' E 031°57'0 0.0
2017-Apr-22 12:00N 46°50' E 031°57'0 0.0
2017-Apr-22 11:30N 46°50' E 031°57'0 0.0
2017-Apr-22 10:58N 46°50' E 031°57'0 0.0
2017-Apr-22 10:26N 46°50' E 031°57'0 0.0
2017-Apr-22 10:00N 46°50' E 031°57'0 0.0
2017-Apr-22 09:28N 46°50' E 031°57'0 0.0
2017-Apr-22 08:58N 46°50' E 031°57'0 0.0
2017-Apr-22 08:30N 46°50' E 031°57'0 0.0
2017-Apr-22 07:59N 46°50' E 031°57'0 0.0
2017-Apr-22 07:29N 46°50' E 031°57'0 0.0
2017-Apr-22 07:00N 46°50' E 031°57'0 0.0
2017-Apr-22 06:30N 46°50' E 031°57'0 0.0
2017-Apr-22 06:00N 46°50' E 031°57'0 0.0
2017-Apr-22 05:28N 46°50' E 031°57'0 0.0
2017-Apr-22 04:58N 46°50' E 031°57'0 0.0
2017-Apr-22 04:28N 46°50' E 031°57'0 0.0
2017-Apr-22 04:00N 46°50' E 031°57'0 0.0
2017-Apr-22 03:29N 46°50' E 031°57'0 0.0
2017-Apr-22 02:59N 46°50' E 031°57'0 0.0
2017-Apr-22 02:29N 46°50' E 031°57'0 0.0
2017-Apr-22 02:00N 46°50' E 031°57'0 0.0
2017-Apr-22 01:30N 46°50' E 031°57'0 0.0
2017-Apr-22 01:00N 46°50' E 031°57'0 0.0
2017-Apr-22 00:30N 46°50' E 031°57'0 0.0
2017-Apr-21 23:58N 46°50' E 031°57'0 0.0
2017-Apr-21 23:26N 46°50' E 031°57'0 0.0
2017-Apr-21 22:59N 46°50' E 031°57'0 0.0
2017-Apr-21 22:29N 46°50' E 031°57'0 0.0
2017-Apr-21 21:57N 46°50' E 031°57'0 0.0
2017-Apr-21 21:28N 46°50' E 031°57'0 0.0
2017-Apr-21 20:58N 46°50' E 031°57'0 0.0
2017-Apr-21 20:27N 46°50' E 031°57'0 0.0
2017-Apr-21 19:56N 46°50' E 031°57'0 0.0
2017-Apr-21 19:30N 46°50' E 031°57'0 0.0
2017-Apr-21 18:58N 46°50' E 031°57'0 0.0
2017-Apr-21 18:29N 46°50' E 031°57'0 0.0
2017-Apr-21 18:00N 46°50' E 031°57'0 0.0
2017-Apr-21 17:29N 46°50' E 031°57'0 0.0
2017-Apr-21 16:56N 46°50' E 031°57'0 0.0
2017-Apr-21 16:29N 46°50' E 031°57'0 0.0
2017-Apr-21 15:59N 46°50' E 031°57'0 0.0
2017-Apr-21 15:30N 46°50' E 031°57'0 0.0
2017-Apr-21 14:54N 46°50' E 031°57'0 0.0
2017-Apr-21 14:29N 46°50' E 031°57'0 0.0
2017-Apr-21 13:30N 46°50' E 031°57'0 0.0
2017-Apr-21 13:00N 46°50' E 031°57'0 0.0
2017-Apr-21 12:28N 46°50' E 031°57'0 0.0
2017-Apr-21 12:00N 46°50' E 031°57'0 0.0
2017-Apr-21 11:30N 46°50' E 031°57'0 0.0
2017-Apr-21 11:00N 46°50' E 031°57'0 0.0
2017-Apr-21 10:28N 46°50' E 031°57'0 0.0
2017-Apr-21 09:59N 46°50' E 031°57'0 0.0
2017-Apr-21 09:23N 46°50' E 031°57'0 0.0
2017-Apr-21 09:00N 46°50' E 031°57'0 0.0
2017-Apr-21 08:28N 46°50' E 031°57'0 0.0
2017-Apr-21 07:57N 46°50' E 031°57'0 0.0
2017-Apr-21 07:28N 46°50' E 031°57'0 0.0
2017-Apr-21 07:00N 46°50' E 031°57'0 0.0
2017-Apr-21 06:29N 46°50' E 031°57'0 0.0
2017-Apr-21 06:00N 46°50' E 031°57'0 0.0
2017-Apr-21 05:28N 46°50' E 031°57'0 0.0
2017-Apr-21 05:00N 46°50' E 031°57'0 0.0
2017-Apr-21 04:30N 46°50' E 031°57'0 0.0
2017-Apr-21 03:58N 46°50' E 031°57'0 0.0
2017-Apr-21 03:29N 46°50' E 031°57'0 0.0
2017-Apr-21 02:58N 46°50' E 031°57'0 0.0
2017-Apr-21 02:30N 46°50' E 031°57'0 0.0
2017-Apr-21 02:00N 46°50' E 031°57'0 0.0
2017-Apr-21 01:30N 46°50' E 031°57'0 0.0
2017-Apr-21 00:59N 46°50' E 031°57'0 0.0
2017-Apr-21 00:28N 46°50' E 031°57'0 0.0
2017-Apr-20 23:59N 46°50' E 031°57'0 0.0
2017-Apr-20 23:30N 46°50' E 031°57'0 0.0
2017-Apr-20 22:58N 46°50' E 031°57'0 0.0
2017-Apr-20 22:29N 46°50' E 031°57'0 0.0
2017-Apr-20 21:57N 46°50' E 031°57'0 0.0
2017-Apr-20 21:30N 46°50' E 031°57'0 0.0
2017-Apr-20 21:00N 46°50' E 031°57'0 0.0
2017-Apr-20 20:30N 46°50' E 031°57'0 0.0
2017-Apr-20 19:55N 46°50' E 031°57'0 0.0
2017-Apr-20 19:28N 46°50' E 031°57'0 0.0
2017-Apr-20 18:58N 46°50' E 031°57'0 0.0
2017-Apr-20 18:29N 46°50' E 031°57'0 0.0
2017-Apr-20 18:00N 46°50' E 031°57'0 0.0
2017-Apr-20 17:30N 46°50' E 031°57'0 0.0
2017-Apr-20 16:59N 46°50' E 031°57'0 0.0
2017-Apr-20 16:29N 46°50' E 031°57'0 0.0
2017-Apr-20 15:59N 46°50' E 031°57'0 0.0
2017-Apr-20 15:30N 46°50' E 031°57'0 0.0
2017-Apr-20 14:58N 46°50' E 031°57'0 0.0
2017-Apr-20 14:29N 46°50' E 031°57'0 0.0
2017-Apr-20 13:26N 46°50' E 031°57'0 0.0
2017-Apr-20 12:59N 46°50' E 031°57'0 0.0
2017-Apr-20 12:26N 46°50' E 031°57'0 0.0
2017-Apr-20 11:59N 46°50' E 031°57'0 0.0
2017-Apr-20 11:25N 46°50' E 031°57'0 0.0
2017-Apr-20 11:00N 46°50' E 031°57'0 0.0
2017-Apr-20 10:30N 46°50' E 031°57'0 0.0
2017-Apr-20 09:57N 46°50' E 031°57'0 0.0
2017-Apr-20 09:30N 46°50' E 031°57'0 0.0
2017-Apr-20 08:59N 46°50' E 031°57'0 0.0
2017-Apr-20 08:30N 46°50' E 031°57'0 0.0
2017-Apr-20 08:00N 46°50' E 031°57'0 0.0
2017-Apr-20 07:29N 46°50' E 031°57'0 0.0
2017-Apr-20 06:59N 46°50' E 031°57'0 0.0
2017-Apr-20 06:29N 46°50' E 031°57'0 0.9
2017-Apr-20 06:00N 46°50' E 031°56'1 1.6
2017-Apr-20 05:25N 46°50' E 031°55'0 0.0
2017-Apr-20 04:56N 46°50' E 031°55'0 0.0
2017-Apr-20 04:30N 46°50' E 031°55'0 0.0
2017-Apr-20 04:00N 46°50' E 031°55'0 0.0
2017-Apr-20 03:29N 46°50' E 031°55'0 0.0
2017-Apr-20 02:58N 46°50' E 031°55'0 0.0
2017-Apr-20 02:26N 46°50' E 031°55'0 0.0
2017-Apr-20 01:59N 46°50' E 031°55'0 0.0
2017-Apr-20 01:28N 46°50' E 031°55'0 0.0
2017-Apr-20 00:58N 46°50' E 031°55'0 0.0
2017-Apr-20 00:28N 46°50' E 031°55'0 0.0
2017-Apr-19 23:57N 46°50' E 031°55'0 0.0
2017-Apr-19 23:27N 46°50' E 031°55'0 0.0
2017-Apr-19 22:58N 46°50' E 031°55'0 0.0
2017-Apr-19 22:30N 46°50' E 031°55'0 0.0
2017-Apr-19 22:00N 46°50' E 031°55'0 0.0
2017-Apr-19 21:29N 46°50' E 031°55'0 0.0
2017-Apr-19 20:59N 46°50' E 031°55'0 0.0
2017-Apr-19 20:29N 46°50' E 031°55'0 0.0
2017-Apr-19 20:00N 46°50' E 031°55'0 0.0
2017-Apr-19 19:28N 46°50' E 031°55'0 0.0
2017-Apr-19 18:57N 46°50' E 031°55'0 0.0
2017-Apr-19 18:28N 46°50' E 031°55'0 0.0
2017-Apr-19 17:58N 46°50' E 031°55'0 0.0
2017-Apr-19 17:29N 46°50' E 031°55'0 0.0
2017-Apr-19 17:00N 46°50' E 031°55'0 0.0
2017-Apr-19 16:29N 46°50' E 031°55'0 0.0
2017-Apr-19 15:59N 46°50' E 031°55'0 0.0
2017-Apr-19 15:28N 46°50' E 031°55'0 0.0
2017-Apr-19 15:00N 46°50' E 031°55'0 0.0
2017-Apr-19 14:30N 46°50' E 031°55'0 0.0
2017-Apr-19 13:25N 46°50' E 031°55'0 0.0
2017-Apr-19 12:56N 46°50' E 031°55'0 0.1
2017-Apr-19 12:30N 46°50' E 031°55'0 0.9
2017-Apr-19 12:01N 46°49' E 031°55'4 7.9
2017-Apr-19 11:30N 46°46' E 031°54'5 9.8
2017-Apr-19 11:01N 46°41' E 031°56'5 9.7
2017-Apr-19 10:30N 46°37' E 031°52'510.1
2017-Apr-19 10:00N 46°36' E 031°45'610.2
2017-Apr-19 09:24N 46°35' E 031°36'27 9.2
2017-Apr-19 06:31N 46°31' E 030°58'1 6.5
2017-Apr-19 06:25N 46°31' E 030°57'3 4.5
2017-Apr-19 05:44N 46°27' E 030°57'1 3.9
2017-Apr-19 05:23N 46°26' E 030°58'  
2017-Apr-16 12:07N 41°01' E 028°60'2 9.1
2017-Apr-16 11:57N 40°59' E 028°60'3 5.4
2017-Apr-16 11:24N 40°57' E 028°58'1 2.6
2017-Apr-16 11:00N 40°56' E 028°57'2 0.2
2017-Apr-15 23:12N 40°58' E 028°56'0 0.0
2017-Apr-15 15:34N 40°58' E 028°56'1 5.6
2017-Apr-15 15:27N 40°57' E 028°57'4 7.8
2017-Apr-15 14:58N 40°54' E 028°55'510.5
2017-Apr-15 14:30N 40°51' E 028°50'  
Track history (hours):
 
Tides and Currents Weather Stations Pressure Air Temp Water Temp Dewpoint Dewpoint Depression Visibility Wind Speed Wind Dir Waves Ship Positions

Sukran S

Last reported at 2017-Apr-23 14:35 UTC. Time now 2017-Apr-24 05:25 UTC.
Position N 46°16' E 030°54'.

Length 108 m; draft 7.1 m.

Type: Cargo ship. MMSI: 271000056.

Date/timePositionNaut miles runAvg speedWind from/ knotsBaromVisibWave heightAir tempDewpointWater temp
2017-Apr-23 14:35N 46°16' E 030°54'6 9.5
2017-Apr-23 13:56N 46°22' E 030°55'4 9.7
2017-Apr-23 13:30N 46°27' E 030°55'5 9.5
2017-Apr-23 13:00N 46°31' E 030°56'23 8.6
2017-Apr-23 10:18N 46°36' E 031°29'3 8.8
2017-Apr-23 10:00N 46°34' E 031°32'5 9.7
2017-Apr-23 09:30N 46°36' E 031°39'510.2
2017-Apr-23 09:00N 46°36' E 031°47'5 9.8
2017-Apr-23 08:30N 46°37' E 031°53'5 9.2
2017-Apr-23 08:00N 46°42' E 031°56'4 8.6
2017-Apr-23 07:30N 46°46' E 031°54'4 8.6
2017-Apr-23 07:00N 46°50' E 031°55'1 1.4
2017-Apr-23 06:29N 46°50' E 031°56'0 0.0
2017-Apr-23 05:59N 46°50' E 031°56'0 0.0
2017-Apr-23 05:29N 46°50' E 031°56'0 0.0
2017-Apr-23 05:00N 46°50' E 031°56'0 0.0
2017-Apr-23 04:27N 46°50' E 031°56'0 0.1
2017-Apr-23 03:59N 46°50' E 031°56'1 1.6
2017-Apr-23 03:30N 46°50' E 031°57'0 0.1
2017-Apr-23 02:59N 46°50' E 031°57'0 0.0
2017-Apr-23 02:29N 46°50' E 031°57'0 0.0
2017-Apr-23 01:59N 46°50' E 031°57'0 0.0
2017-Apr-23 01:27N 46°50' E 031°57'0 0.0
2017-Apr-23 01:00N 46°50' E 031°57'0 0.0
2017-Apr-23 00:30N 46°50' E 031°57'0 0.0
2017-Apr-22 23:58N 46°50' E 031°57'0 0.0
2017-Apr-22 23:28N 46°50' E 031°57'0 0.0
2017-Apr-22 22:58N 46°50' E 031°57'0 0.0
2017-Apr-22 22:29N 46°50' E 031°57'0 0.0
2017-Apr-22 22:00N 46°50' E 031°57'0 0.0
2017-Apr-22 21:26N 46°50' E 031°57'0 0.0
2017-Apr-22 20:59N 46°50' E 031°57'0 0.0
2017-Apr-22 20:28N 46°50' E 031°57'0 0.0
2017-Apr-22 19:59N 46°50' E 031°57'0 0.0
2017-Apr-22 19:29N 46°50' E 031°57'0 0.0
2017-Apr-22 19:00N 46°50' E 031°57'0 0.0
2017-Apr-22 18:28N 46°50' E 031°57'0 0.0
2017-Apr-22 17:57N 46°50' E 031°57'0 0.0
2017-Apr-22 17:30N 46°50' E 031°57'0 0.0
2017-Apr-22 17:00N 46°50' E 031°57'0 0.0
2017-Apr-22 16:30N 46°50' E 031°57'0 0.0
2017-Apr-22 16:00N 46°50' E 031°57'0 0.0
2017-Apr-22 15:29N 46°50' E 031°57'0 0.0
2017-Apr-22 15:00N 46°50' E 031°57'0 0.0
2017-Apr-22 14:28N 46°50' E 031°57'0 0.0
2017-Apr-22 13:30N 46°50' E 031°57'0 0.0
2017-Apr-22 13:00N 46°50' E 031°57'0 0.0
2017-Apr-22 12:28N 46°50' E 031°57'0 0.0
2017-Apr-22 12:00N 46°50' E 031°57'0 0.0
2017-Apr-22 11:30N 46°50' E 031°57'0 0.0
2017-Apr-22 10:58N 46°50' E 031°57'0 0.0
2017-Apr-22 10:26N 46°50' E 031°57'0 0.0
2017-Apr-22 10:00N 46°50' E 031°57'0 0.0
2017-Apr-22 09:28N 46°50' E 031°57'0 0.0
2017-Apr-22 08:58N 46°50' E 031°57'0 0.0
2017-Apr-22 08:30N 46°50' E 031°57'0 0.0
2017-Apr-22 07:59N 46°50' E 031°57'0 0.0
2017-Apr-22 07:29N 46°50' E 031°57'0 0.0
2017-Apr-22 07:00N 46°50' E 031°57'0 0.0
2017-Apr-22 06:30N 46°50' E 031°57'0 0.0
2017-Apr-22 06:00N 46°50' E 031°57'0 0.0
2017-Apr-22 05:28N 46°50' E 031°57'0 0.0
2017-Apr-22 04:58N 46°50' E 031°57'0 0.0
2017-Apr-22 04:28N 46°50' E 031°57'0 0.0
2017-Apr-22 04:00N 46°50' E 031°57'0 0.0
2017-Apr-22 03:29N 46°50' E 031°57'0 0.0
2017-Apr-22 02:59N 46°50' E 031°57'0 0.0
2017-Apr-22 02:29N 46°50' E 031°57'0 0.0
2017-Apr-22 02:00N 46°50' E 031°57'0 0.0
2017-Apr-22 01:30N 46°50' E 031°57'0 0.0
2017-Apr-22 01:00N 46°50' E 031°57'0 0.0
2017-Apr-22 00:30N 46°50' E 031°57'0 0.0
2017-Apr-21 23:58N 46°50' E 031°57'0 0.0
2017-Apr-21 23:26N 46°50' E 031°57'0 0.0
2017-Apr-21 22:59N 46°50' E 031°57'0 0.0
2017-Apr-21 22:29N 46°50' E 031°57'0 0.0
2017-Apr-21 21:57N 46°50' E 031°57'0 0.0
2017-Apr-21 21:28N 46°50' E 031°57'0 0.0
2017-Apr-21 20:58N 46°50' E 031°57'0 0.0
2017-Apr-21 20:27N 46°50' E 031°57'0 0.0
2017-Apr-21 19:56N 46°50' E 031°57'0 0.0
2017-Apr-21 19:30N 46°50' E 031°57'0 0.0
2017-Apr-21 18:58N 46°50' E 031°57'0 0.0
2017-Apr-21 18:29N 46°50' E 031°57'0 0.0
2017-Apr-21 18:00N 46°50' E 031°57'0 0.0
2017-Apr-21 17:29N 46°50' E 031°57'0 0.0
2017-Apr-21 16:56N 46°50' E 031°57'0 0.0
2017-Apr-21 16:29N 46°50' E 031°57'0 0.0
2017-Apr-21 15:59N 46°50' E 031°57'0 0.0
2017-Apr-21 15:30N 46°50' E 031°57'0 0.0
2017-Apr-21 14:54N 46°50' E 031°57'0 0.0
2017-Apr-21 14:29N 46°50' E 031°57'0 0.0
2017-Apr-21 13:30N 46°50' E 031°57'0 0.0
2017-Apr-21 13:00N 46°50' E 031°57'0 0.0
2017-Apr-21 12:28N 46°50' E 031°57'0 0.0
2017-Apr-21 12:00N 46°50' E 031°57'0 0.0
2017-Apr-21 11:30N 46°50' E 031°57'0 0.0
2017-Apr-21 11:00N 46°50' E 031°57'0 0.0
2017-Apr-21 10:28N 46°50' E 031°57'0 0.0
2017-Apr-21 09:59N 46°50' E 031°57'0 0.0
2017-Apr-21 09:23N 46°50' E 031°57'0 0.0
2017-Apr-21 09:00N 46°50' E 031°57'0 0.0
2017-Apr-21 08:28N 46°50' E 031°57'0 0.0
2017-Apr-21 07:57N 46°50' E 031°57'0 0.0
2017-Apr-21 07:28N 46°50' E 031°57'0 0.0
2017-Apr-21 07:00N 46°50' E 031°57'0 0.0
2017-Apr-21 06:29N 46°50' E 031°57'0 0.0
2017-Apr-21 06:00N 46°50' E 031°57'0 0.0
2017-Apr-21 05:28N 46°50' E 031°57'0 0.0
2017-Apr-21 05:00N 46°50' E 031°57'0 0.0
2017-Apr-21 04:30N 46°50' E 031°57'0 0.0
2017-Apr-21 03:58N 46°50' E 031°57'0 0.0
2017-Apr-21 03:29N 46°50' E 031°57'0 0.0
2017-Apr-21 02:58N 46°50' E 031°57'0 0.0
2017-Apr-21 02:30N 46°50' E 031°57'0 0.0
2017-Apr-21 02:00N 46°50' E 031°57'0 0.0
2017-Apr-21 01:30N 46°50' E 031°57'0 0.0
2017-Apr-21 00:59N 46°50' E 031°57'0 0.0
2017-Apr-21 00:28N 46°50' E 031°57'0 0.0
2017-Apr-20 23:59N 46°50' E 031°57'0 0.0
2017-Apr-20 23:30N 46°50' E 031°57'0 0.0
2017-Apr-20 22:58N 46°50' E 031°57'0 0.0
2017-Apr-20 22:29N 46°50' E 031°57'0 0.0
2017-Apr-20 21:57N 46°50' E 031°57'0 0.0
2017-Apr-20 21:30N 46°50' E 031°57'0 0.0
2017-Apr-20 21:00N 46°50' E 031°57'0 0.0
2017-Apr-20 20:30N 46°50' E 031°57'0 0.0
2017-Apr-20 19:55N 46°50' E 031°57'0 0.0
2017-Apr-20 19:28N 46°50' E 031°57'0 0.0
2017-Apr-20 18:58N 46°50' E 031°57'0 0.0
2017-Apr-20 18:29N 46°50' E 031°57'0 0.0
2017-Apr-20 18:00N 46°50' E 031°57'0 0.0
2017-Apr-20 17:30N 46°50' E 031°57'0 0.0
2017-Apr-20 16:59N 46°50' E 031°57'0 0.0
2017-Apr-20 16:29N 46°50' E 031°57'0 0.0
2017-Apr-20 15:59N 46°50' E 031°57'0 0.0
2017-Apr-20 15:30N 46°50' E 031°57'0 0.0
2017-Apr-20 14:58N 46°50' E 031°57'0 0.0
2017-Apr-20 14:29N 46°50' E 031°57'0 0.0
2017-Apr-20 13:26N 46°50' E 031°57'0 0.0
2017-Apr-20 12:59N 46°50' E 031°57'0 0.0
2017-Apr-20 12:26N 46°50' E 031°57'0 0.0
2017-Apr-20 11:59N 46°50' E 031°57'0 0.0
2017-Apr-20 11:25N 46°50' E 031°57'0 0.0
2017-Apr-20 11:00N 46°50' E 031°57'0 0.0
2017-Apr-20 10:30N 46°50' E 031°57'0 0.0
2017-Apr-20 09:57N 46°50' E 031°57'0 0.0
2017-Apr-20 09:30N 46°50' E 031°57'0 0.0
2017-Apr-20 08:59N 46°50' E 031°57'0 0.0
2017-Apr-20 08:30N 46°50' E 031°57'0 0.0
2017-Apr-20 08:00N 46°50' E 031°57'0 0.0
2017-Apr-20 07:29N 46°50' E 031°57'0 0.0
2017-Apr-20 06:59N 46°50' E 031°57'0 0.0
2017-Apr-20 06:29N 46°50' E 031°57'0 0.9
2017-Apr-20 06:00N 46°50' E 031°56'1 1.6
2017-Apr-20 05:25N 46°50' E 031°55'0 0.0
2017-Apr-20 04:56N 46°50' E 031°55'0 0.0
2017-Apr-20 04:30N 46°50' E 031°55'0 0.0
2017-Apr-20 04:00N 46°50' E 031°55'0 0.0
2017-Apr-20 03:29N 46°50' E 031°55'0 0.0
2017-Apr-20 02:58N 46°50' E 031°55'0 0.0
2017-Apr-20 02:26N 46°50' E 031°55'0 0.0
2017-Apr-20 01:59N 46°50' E 031°55'0 0.0
2017-Apr-20 01:28N 46°50' E 031°55'0 0.0
2017-Apr-20 00:58N 46°50' E 031°55'0 0.0
2017-Apr-20 00:28N 46°50' E 031°55'0 0.0
2017-Apr-19 23:57N 46°50' E 031°55'0 0.0
2017-Apr-19 23:27N 46°50' E 031°55'0 0.0
2017-Apr-19 22:58N 46°50' E 031°55'0 0.0
2017-Apr-19 22:30N 46°50' E 031°55'0 0.0
2017-Apr-19 22:00N 46°50' E 031°55'0 0.0
2017-Apr-19 21:29N 46°50' E 031°55'0 0.0
2017-Apr-19 20:59N 46°50' E 031°55'0 0.0
2017-Apr-19 20:29N 46°50' E 031°55'0 0.0
2017-Apr-19 20:00N 46°50' E 031°55'0 0.0
2017-Apr-19 19:28N 46°50' E 031°55'0 0.0
2017-Apr-19 18:57N 46°50' E 031°55'0 0.0
2017-Apr-19 18:28N 46°50' E 031°55'0 0.0
2017-Apr-19 17:58N 46°50' E 031°55'0 0.0
2017-Apr-19 17:29N 46°50' E 031°55'0 0.0
2017-Apr-19 17:00N 46°50' E 031°55'0 0.0
2017-Apr-19 16:29N 46°50' E 031°55'0 0.0
2017-Apr-19 15:59N 46°50' E 031°55'0 0.0
2017-Apr-19 15:28N 46°50' E 031°55'0 0.0
2017-Apr-19 15:00N 46°50' E 031°55'0 0.0
2017-Apr-19 14:30N 46°50' E 031°55'0 0.0
2017-Apr-19 13:25N 46°50' E 031°55'0 0.0
2017-Apr-19 12:56N 46°50' E 031°55'0 0.1
2017-Apr-19 12:30N 46°50' E 031°55'0 0.9
2017-Apr-19 12:01N 46°49' E 031°55'4 7.9
2017-Apr-19 11:30N 46°46' E 031°54'5 9.8
2017-Apr-19 11:01N 46°41' E 031°56'5 9.7
2017-Apr-19 10:30N 46°37' E 031°52'510.1
2017-Apr-19 10:00N 46°36' E 031°45'610.2
2017-Apr-19 09:24N 46°35' E 031°36'27 9.2
2017-Apr-19 06:31N 46°31' E 030°58'1 6.5
2017-Apr-19 06:25N 46°31' E 030°57'3 4.5
2017-Apr-19 05:44N 46°27' E 030°57'1 3.9
2017-Apr-19 05:23N 46°26' E 030°58'  
2017-Apr-16 12:07N 41°01' E 028°60'2 9.1
2017-Apr-16 11:57N 40°59' E 028°60'3 5.4
2017-Apr-16 11:24N 40°57' E 028°58'1 2.6
2017-Apr-16 11:00N 40°56' E 028°57'2 0.2
2017-Apr-15 23:12N 40°58' E 028°56'0 0.0
2017-Apr-15 15:34N 40°58' E 028°56'1 5.6
2017-Apr-15 15:27N 40°57' E 028°57'4 7.8
2017-Apr-15 14:58N 40°54' E 028°55'510.5
2017-Apr-15 14:30N 40°51' E 028°50'  

Dump ship's entire track history